Lincolnshire, IL (60069)

2:13 AM CDT on September 03, 2015 (GMT -0500)
Greenwood | | Change Station
CLOSE
Current Station
Personal Weather Station
Location: Deerfield, IL
Elevation: 699 ft
Nearby Weather Stations

Elev 699 ft 42.17 °N, 87.85 °W | Updated 19 seconds ago

Overcast
Overcast
74.5 °F
Feels Like 75 °F
N
0.0
Wind Variable Wind from ESE
Gusts 0.0 mph

Today
High -- | Low -- °F
--% Chance of Precip.
Yesterday
High -- | Low -- °F
Precip. -- in
6:18 AM 7:22 PM
Waning Gibbous, 73% visible
Pressure 29.94 in
Visibility 10.0 miles
Clouds Few 9000 ft
Heat Index 75 °F
Dew Point 69 °F
Humidity 82%
Rainfall 0.00 in
Snow Depth Not available.
UV 0 out of 12
Pollen 11.00 out of 12
Air Quality Not available.
Flu Activity Not available.
METAR KPWK 030652Z AUTO 19005KT 10SM FEW090 25/19 A2996 RMK AO2 SLP139 T02500194
Pressure 29.94 in
Visibility 10.0 miles
Clouds Few 9000 ft
Heat Index 75 °F
Dew Point 69 °F
Humidity 82%
Rainfall 0.00 in
Snow Depth Not available.
UV 0 out of 12
Pollen 11.00 out of 12
Air Quality Not available.
Flu Activity Not available.
METAR KPWK 030652Z AUTO 19005KT 10SM FEW090 25/19 A2996 RMK AO2 SLP139 T02500194

10-Day Weather Forecast

×

Almanac

Astronomy

Sep. 03, 2015 Rise Set
Actual Time
Civil Twilight
Nautical Twilight
Astronomical Twilight
Moon
Length of Visible Light
Length of Day
Tomorrow will be .
, % of the Moon is Illuminated

Today's Extremes

State Highs State Lows

Community

WunderPhotos

Upload Photos

1,851,915 photos uploaded!

WunderBlogs® & News

Nearby

Air Quality

  Air Quality AQ Index Pollutant
Not available.

Snow Depth

Station Depth Elevation

Earthquake Activity

City Distance Mag. Time & Date
Minimum magnitude displayed is 2.5.

Coastal Water Temperatures

Place Temperature

Stations

Nearby Weather Stations

Station Location Temp. Windchill Dew Point Humidity Wind Precip. Elev Updated Type